Time;durP1;ratioP1;P1;durP2;ratioP2;P2;SDS_P1;SDS_P2;PMS_P1;PMS_P2;Temp;Humidity;BMP_temperature;BMP_pressure;BME280_temperature;BME280_humidity;BME280_pressure;Samples;Min_cycle;Max_cycle;Signal;HPM_P1;HPM_P2
2023/07/31 00:01:55;;;;;;;;;;;;;;;22.11;92.58;97945.59;5044215;28;19971;-72
2023/07/31 00:04:21;;;;;;;;;;;;;;;21.87;92.71;97949.84;5044566;28;19925;-71
2023/07/31 00:06:48;;;;;;;;;;;;;;;21.71;95.71;97942.63;5045205;28;19948;-71
2023/07/31 00:09:15;;;;;;;;;;;;;;;21.83;94.60;97945.41;5047253;28;19964;-72
2023/07/31 00:11:42;;;;;;;;;;;;;;;21.92;93.92;97940.69;5048645;28;20374;-71
2023/07/31 00:14:08;;;;;;;;;;;;;;;21.97;93.26;97948.66;5044798;28;19925;-72
2023/07/31 00:16:34;;;;;;;;;;;;;;;21.94;93.42;97944.66;5050049;28;20061;-71
2023/07/31 00:19:01;;;;;;;;;;;;;;;21.95;93.30;97942.75;5050044;28;19926;-71
2023/07/31 00:21:27;;;;;;;;;;;;;;;21.95;93.21;97937.31;5047391;28;19925;-72
2023/07/31 00:23:54;;;;;;;;;;;;;;;21.93;92.78;97945.00;5025956;28;19979;-72
2023/07/31 00:26:21;;;;;;;;;;;;;;;21.95;92.68;97942.75;5043731;28;19944;-72
2023/07/31 00:28:48;;;;;;;;;;;;;;;21.93;93.96;97939.56;5044399;28;19925;-72
2023/07/31 00:31:14;;;;;;;;;;;;;;;21.92;93.72;97943.41;5030340;28;19968;-72
2023/07/31 00:33:40;;;;;;;;;;;;;;;21.45;95.54;97946.38;5048229;28;19929;-72
2023/07/31 00:36:07;;;;;;;;;;;;;;;21.35;99.12;97937.84;5044202;28;19956;-72
2023/07/31 00:38:33;;;;;;;;;;;;;;;21.45;99.50;97951.81;5043726;28;19964;-72
2023/07/31 00:40:59;;;;;;;;;;;;;;;21.60;98.12;97944.97;5027144;28;20422;-72
2023/07/31 00:43:27;;;;;;;;;;;;;;;21.62;97.51;97945.44;5045835;28;20293;-72
2023/07/31 00:45:54;;;;;;;;;;;;;;;21.63;97.80;97955.19;5050359;28;19952;-72
2023/07/31 00:48:20;;;;;;;;;;;;;;;21.66;96.76;97940.13;5047349;28;19976;-72
2023/07/31 00:50:46;;;;;;;;;;;;;;;21.71;97.01;97931.75;5043753;28;19925;-72
2023/07/31 00:53:13;;;;;;;;;;;;;;;21.74;96.59;97937.31;5028304;28;19952;-72
2023/07/31 00:55:40;;;;;;;;;;;;;;;21.75;95.87;97936.22;5044648;28;19972;-72
2023/07/31 00:58:06;;;;;;;;;;;;;;;21.78;96.10;97937.47;5048402;28;19925;-72
2023/07/31 01:00:34;;;;;;;;;;;;;;;21.75;96.80;97935.41;5048396;28;19932;-72
2023/07/31 01:03:01;;;;;;;;;;;;;;;21.71;97.39;97929.03;5044331;28;19925;-71
2023/07/31 01:05:34;;;;;;;;;;;;;;;21.73;96.93;97927.56;5045168;28;19932;-71
2023/07/31 01:08:10;;;;;;;;;;;;;;;21.74;96.71;97931.09;5023998;28;19930;-71
2023/07/31 01:10:41;;;;;;;;;;;;;;;21.61;94.98;97921.31;5048771;28;19956;-71
2023/07/31 01:13:08;;;;;;;;;;;;;;;21.54;97.67;97927.28;5043922;28;19979;-71
2023/07/31 01:15:36;;;;;;;;;;;;;;;21.59;97.54;97926.28;5037524;28;19989;-72
2023/07/31 01:18:02;;;;;;;;;;;;;;;21.62;97.06;97922.91;5042016;28;19929;-71
2023/07/31 01:20:30;;;;;;;;;;;;;;;21.65;97.08;97920.31;5045344;28;19956;-72
2023/07/31 01:23:21;;;;;;;;;;;;;;;21.65;96.98;97923.03;5047480;28;19932;-71
2023/07/31 01:25:53;;;;;;;;;;;;;;;21.59;97.13;97913.50;5047278;28;19971;-71
2023/07/31 01:28:21;;;;;;;;;;;;;;;21.54;97.88;97911.75;5027355;28;19988;-71
2023/07/31 01:30:48;;;;;;;;;;;;;;;21.60;97.65;97915.06;5042426;28;19925;-71
2023/07/31 01:33:16;;;;;;;;;;;;;;;21.51;97.12;97912.44;5024877;28;19925;-71
2023/07/31 01:35:44;;;;;;;;;;;;;;;21.08;97.86;97903.81;5043724;28;19936;-71
2023/07/31 01:38:10;;;;;;;;;;;;;;;20.72;100.00;97907.09;5046002;28;20375;-71
2023/07/31 01:40:37;;;;;;;;;;;;;;;20.86;100.00;97904.94;5046958;28;19925;-72
2023/07/31 01:43:04;;;;;;;;;;;;;;;21.06;100.00;97908.78;5037812;28;19988;-71
2023/07/31 01:45:31;;;;;;;;;;;;;;;21.17;100.00;97907.28;5042238;28;20017;-71
2023/07/31 01:47:57;;;;;;;;;;;;;;;21.30;100.00;97908.94;5043465;28;19960;-71
2023/07/31 01:50:23;;;;;;;;;;;;;;;21.24;99.84;97899.41;5018722;28;20001;-71
2023/07/31 01:52:50;;;;;;;;;;;;;;;21.27;100.00;97898.75;5046696;28;19953;-71
2023/07/31 01:55:16;;;;;;;;;;;;;;;21.22;100.00;97892.72;5026532;28;20015;-71
2023/07/31 01:57:42;;;;;;;;;;;;;;;21.24;100.00;97901.34;5042118;28;19999;-71
2023/07/31 02:00:09;;;;;;;;;;;;;;;21.22;100.00;97898.97;5047570;28;19933;-71
2023/07/31 02:02:36;;;;;;;;;;;;;;;21.27;99.42;97896.03;5047098;28;19971;-72
2023/07/31 02:05:02;;;;;;;;;;;;;;;21.29;99.67;97893.78;5041213;28;19992;-72
2023/07/31 02:07:28;;;;;;;;;;;;;;;21.35;99.08;97884.28;5041904;28;19929;-72
2023/07/31 02:09:55;;;;;;;;;;;;;;;21.37;99.05;97892.91;5041653;28;19925;-72
2023/07/31 02:12:21;;;;;;;;;;;;;;;21.39;98.54;97892.56;5045286;28;19960;-72
2023/07/31 02:14:48;;;;;;;;;;;;;;;21.36;98.18;97895.94;5046198;28;19948;-72
2023/07/31 02:17:15;;;;;;;;;;;;;;;21.35;98.92;97886.22;5031284;28;19948;-72
2023/07/31 02:19:42;;;;;;;;;;;;;;;21.31;99.28;97898.88;5041511;28;19925;-72
2023/07/31 02:22:08;;;;;;;;;;;;;;;21.37;98.76;97892.91;5023802;28;19992;-72
2023/07/31 02:24:34;;;;;;;;;;;;;;;21.29;99.33;97882.91;5043312;28;19953;-72
2023/07/31 02:27:01;;;;;;;;;;;;;;;21.21;100.00;97885.69;5046090;28;19983;-72
2023/07/31 02:29:27;;;;;;;;;;;;;;;21.15;100.00;97882.41;5026930;28;19925;-71
2023/07/31 02:31:53;;;;;;;;;;;;;;;21.16;100.00;97884.00;5041254;28;19940;-72
2023/07/31 02:34:21;;;;;;;;;;;;;;;21.18;100.00;97876.31;5041754;28;19953;-71
2023/07/31 02:36:47;;;;;;;;;;;;;;;21.22;100.00;97876.44;5040656;28;19992;-72
2023/07/31 02:39:14;;;;;;;;;;;;;;;21.19;100.00;97871.66;5044704;28;19952;-71
2023/07/31 02:41:40;;;;;;;;;;;;;;;21.17;100.00;97873.94;5047191;28;19948;-72
2023/07/31 02:44:07;;;;;;;;;;;;;;;21.13;100.00;97875.72;5025049;28;19987;-71
2023/07/31 02:46:33;;;;;;;;;;;;;;;20.95;100.00;97880.47;5047169;28;19964;-71
2023/07/31 02:48:59;;;;;;;;;;;;;;;20.70;100.00;97876.00;5042485;28;19960;-71
2023/07/31 02:51:27;;;;;;;;;;;;;;;20.77;100.00;97865.41;5049305;28;19951;-71
2023/07/31 02:53:53;;;;;;;;;;;;;;;20.92;100.00;97865.59;5041744;28;19929;-71
2023/07/31 02:56:20;;;;;;;;;;;;;;;20.96;100.00;97854.88;5041160;28;19961;-71
2023/07/31 02:58:46;;;;;;;;;;;;;;;21.05;100.00;97855.59;5041691;28;20304;-71
2023/07/31 03:01:12;;;;;;;;;;;;;;;21.02;100.00;97867.13;5027942;28;19925;-71
2023/07/31 03:03:39;;;;;;;;;;;;;;;21.05;100.00;97860.22;5037606;28;19926;-72
2023/07/31 03:06:05;;;;;;;;;;;;;;;21.04;100.00;97862.19;5041536;28;19925;-71
2023/07/31 03:08:33;;;;;;;;;;;;;;;21.02;100.00;97867.13;5041119;28;19996;-71
2023/07/31 03:10:59;;;;;;;;;;;;;;;20.92;100.00;97867.56;5041509;28;19933;-71
2023/07/31 03:13:26;;;;;;;;;;;;;;;20.93;100.00;97863.69;5033992;28;19925;-71
2023/07/31 03:15:52;;;;;;;;;;;;;;;21.01;100.00;97868.28;5051398;28;19925;-71
2023/07/31 03:18:18;;;;;;;;;;;;;;;20.94;100.00;97859.84;5051986;28;19956;-71
2023/07/31 03:20:45;;;;;;;;;;;;;;;20.90;100.00;97861.63;5047295;28;19925;-72
2023/07/31 03:23:11;;;;;;;;;;;;;;;20.94;100.00;97874.22;5048827;28;19953;-72
2023/07/31 03:25:39;;;;;;;;;;;;;;;20.48;100.00;97868.16;5048157;28;19936;-72
2023/07/31 03:28:05;;;;;;;;;;;;;;;20.51;100.00;97876.44;5029608;28;19926;-72
2023/07/31 03:30:31;;;;;;;;;;;;;;;20.60;100.00;97876.38;5051591;28;19949;-72
2023/07/31 03:32:58;;;;;;;;;;;;;;;20.65;100.00;97878.88;5027313;28;19930;-72
2023/07/31 03:35:24;;;;;;;;;;;;;;;20.66;100.00;97877.78;5043546;28;19926;-71
2023/07/31 03:37:51;;;;;;;;;;;;;;;20.66;100.00;97875.84;5047588;28;20322;-71
2023/07/31 03:40:17;;;;;;;;;;;;;;;20.67;100.00;97884.81;5055637;28;19964;-72
2023/07/31 03:42:45;;;;;;;;;;;;;;;20.65;100.00;97878.88;5047786;28;19955;-72
2023/07/31 03:45:11;;;;;;;;;;;;;;;20.62;100.00;97880.34;5045489;28;19979;-72
2023/07/31 03:47:37;;;;;;;;;;;;;;;20.44;100.00;97885.09;5045425;28;19969;-72
2023/07/31 03:50:04;;;;;;;;;;;;;;;19.88;100.00;97880.03;5052439;28;19929;-72
2023/07/31 03:52:30;;;;;;;;;;;;;;;20.13;100.00;97875.63;5050906;28;19992;-72
2023/07/31 03:54:57;;;;;;;;;;;;;;;20.25;100.00;97881.16;5047326;28;19921;-72
2023/07/31 03:57:23;;;;;;;;;;;;;;;20.40;100.00;97873.28;5047556;28;19929;-72
2023/07/31 03:59:51;;;;;;;;;;;;;;;20.53;100.00;97876.88;5049272;28;19925;-72
2023/07/31 04:02:18;;;;;;;;;;;;;;;20.67;100.00;97880.19;5051355;28;19932;-72
2023/07/31 04:04:45;;;;;;;;;;;;;;;20.64;100.00;97871.91;5052672;28;19925;-71
2023/07/31 04:07:11;;;;;;;;;;;;;;;20.67;100.00;97882.88;5048595;28;19925;-71
2023/07/31 04:09:37;;;;;;;;;;;;;;;20.67;100.00;97882.09;5047257;28;19956;-72
2023/07/31 04:12:04;;;;;;;;;;;;;;;20.59;100.00;97875.56;5045163;28;20291;-72
2023/07/31 04:14:30;;;;;;;;;;;;;;;20.47;100.00;97867.34;5047265;28;19964;-72
2023/07/31 04:16:58;;;;;;;;;;;;;;;20.45;100.00;97877.75;5051570;28;20057;-72
2023/07/31 04:19:25;;;;;;;;;;;;;;;20.34;100.00;97869.16;5050125;28;19921;-72
2023/07/31 04:21:51;;;;;;;;;;;;;;;20.33;100.00;97872.22;5047120;28;19972;-72
2023/07/31 04:24:23;;;;;;;;;;;;;;;20.27;100.00;97871.59;5030518;28;19952;-72
2023/07/31 04:26:50;;;;;;;;;;;;;;;20.29;100.00;97860.44;5028106;28;19961;-72
2023/07/31 04:29:16;;;;;;;;;;;;;;;20.27;100.00;97858.03;5029124;28;19937;-72
2023/07/31 04:31:43;;;;;;;;;;;;;;;20.34;100.00;97866.47;5049335;28;19996;-72
2023/07/31 04:34:11;;;;;;;;;;;;;;;20.12;100.00;97861.25;5026628;28;19925;-72
2023/07/31 04:36:37;;;;;;;;;;;;;;;20.28;100.00;97865.06;5045275;28;19925;-72
2023/07/31 04:39:04;;;;;;;;;;;;;;;20.03;100.00;97855.09;5030964;28;20090;-72
2023/07/31 04:41:30;;;;;;;;;;;;;;;20.21;100.00;97859.31;5048332;28;20033;-71
2023/07/31 04:43:56;;;;;;;;;;;;;;;20.31;100.00;97855.47;5044260;28;19992;-71
2023/07/31 04:46:23;;;;;;;;;;;;;;;20.29;100.00;97855.00;5032043;28;19984;-71
2023/07/31 04:48:49;;;;;;;;;;;;;;;20.09;100.00;97848.38;5027645;28;20064;-71
2023/07/31 04:51:17;;;;;;;;;;;;;;;19.64;100.00;97847.25;5047138;28;19976;-72
2023/07/31 04:53:43;;;;;;;;;;;;;;;19.72;100.00;97857.28;5048838;28;19925;-71
2023/07/31 04:56:09;;;;;;;;;;;;;;;19.51;100.00;97856.38;5027497;28;19931;-72
2023/07/31 04:58:36;;;;;;;;;;;;;;;19.84;100.00;97846.53;5043684;28;19925;-71
2023/07/31 05:01:02;;;;;;;;;;;;;;;20.12;100.00;97845.00;5036445;28;19925;-72
2023/07/31 05:03:28;;;;;;;;;;;;;;;19.92;100.00;97846.53;5044409;28;19926;-72
2023/07/31 05:05:55;;;;;;;;;;;;;;;19.96;100.00;97840.47;5047705;28;19940;-72
2023/07/31 05:08:22;;;;;;;;;;;;;;;19.97;100.00;97845.53;5045451;28;19980;-72
2023/07/31 05:10:49;;;;;;;;;;;;;;;20.08;100.00;97835.94;5042770;28;19925;-72
2023/07/31 05:13:15;;;;;;;;;;;;;;;19.81;100.00;97839.88;5044382;28;19952;-72
2023/07/31 05:15:42;;;;;;;;;;;;;;;19.37;100.00;97846.47;5048694;28;19925;-72
2023/07/31 05:18:08;;;;;;;;;;;;;;;18.93;100.00;97846.84;5046762;28;19972;-71
2023/07/31 05:20:35;;;;;;;;;;;;;;;18.66;100.00;97847.16;5046980;28;19956;-71
2023/07/31 05:23:01;;;;;;;;;;;;;;;18.56;100.00;97852.84;5043452;28;19929;-72
2023/07/31 05:25:29;;;;;;;;;;;;;;;19.11;100.00;97853.84;5045400;28;19948;-72
2023/07/31 05:27:55;;;;;;;;;;;;;;;19.09;100.00;97853.38;5047990;28;19924;-71
2023/07/31 05:30:22;;;;;;;;;;;;;;;19.24;100.00;97852.88;5045319;28;19981;-72
2023/07/31 05:32:48;;;;;;;;;;;;;;;19.05;100.00;97848.91;5024995;28;19985;-72
2023/07/31 05:35:14;;;;;;;;;;;;;;;18.70;100.00;97839.97;5042707;28;19933;-72
2023/07/31 05:37:41;;;;;;;;;;;;;;;18.69;100.00;97841.88;5043648;28;19977;-72
2023/07/31 05:40:08;;;;;;;;;;;;;;;18.76;100.00;97841.41;5046551;28;19926;-71
2023/07/31 05:42:37;;;;;;;;;;;;;;;18.70;100.00;97848.88;5046960;28;20050;-71
2023/07/31 05:45:04;;;;;;;;;;;;;;;18.78;100.00;97850.03;5042556;28;19929;-71
2023/07/31 05:47:30;;;;;;;;;;;;;;;18.48;100.00;97848.19;5047531;28;19953;-71
2023/07/31 05:49:57;;;;;;;;;;;;;;;18.27;100.00;97851.47;5043956;28;19932;-71
2023/07/31 05:52:25;;;;;;;;;;;;;;;18.39;100.00;97840.06;5043837;28;20147;-71
2023/07/31 05:54:52;;;;;;;;;;;;;;;18.42;100.00;97844.03;5047411;28;19925;-71
2023/07/31 05:57:18;;;;;;;;;;;;;;;19.24;100.00;97836.63;5044433;28;19926;-71
2023/07/31 05:59:46;;;;;;;;;;;;;;;19.30;100.00;97835.34;5041716;28;19933;-71
2023/07/31 06:02:13;;;;;;;;;;;;;;;19.83;100.00;97832.22;5044340;28;19921;-72
2023/07/31 06:04:39;;;;;;;;;;;;;;;20.09;100.00;97834.81;5033919;28;20004;-72
2023/07/31 06:07:06;;;;;;;;;;;;;;;20.20;100.00;97833.34;5047797;28;19929;-72
2023/07/31 06:09:32;;;;;;;;;;;;;;;20.29;100.00;97825.97;5046842;28;19936;-73
2023/07/31 06:11:59;;;;;;;;;;;;;;;20.44;100.00;97824.59;5024429;28;19936;-71
2023/07/31 06:14:25;;;;;;;;;;;;;;;20.45;100.00;97827.00;5027825;28;19936;-72
2023/07/31 06:16:53;;;;;;;;;;;;;;;20.52;100.00;97831.13;5041410;28;19925;-71
2023/07/31 06:19:20;;;;;;;;;;;;;;;20.51;100.00;97824.88;5044031;28;19971;-71
2023/07/31 06:21:46;;;;;;;;;;;;;;;20.61;100.00;97818.28;5041620;28;19952;-71
2023/07/31 06:24:13;;;;;;;;;;;;;;;20.74;100.00;97812.56;5041485;28;20418;-71
2023/07/31 06:26:39;;;;;;;;;;;;;;;20.92;100.00;97810.53;5042954;28;20481;-71
2023/07/31 06:29:06;;;;;;;;;;;;;;;21.06;100.00;97812.97;5028583;28;19941;-71
2023/07/31 06:31:32;;;;;;;;;;;;;;;20.92;100.00;97821.41;5045386;28;20020;-71
2023/07/31 06:34:00;;;;;;;;;;;;;;;21.01;100.00;97825.59;5041695;28;19948;-71
2023/07/31 06:36:26;;;;;;;;;;;;;;;21.18;99.98;97821.97;5041726;28;19929;-71
2023/07/31 06:38:53;;;;;;;;;;;;;;;21.20;98.96;97829.81;5042808;28;19925;-71
2023/07/31 06:41:19;;;;;;;;;;;;;;;21.35;99.03;97821.03;5044124;28;19949;-71
2023/07/31 06:43:45;;;;;;;;;;;;;;;21.38;99.68;97826.59;5046027;28;19948;-71
2023/07/31 06:46:12;;;;;;;;;;;;;;;21.56;98.44;97823.69;5042724;28;19925;-71
2023/07/31 06:48:38;;;;;;;;;;;;;;;21.69;97.94;97826.09;5023778;28;19930;-71
2023/07/31 06:51:06;;;;;;;;;;;;;;;21.87;96.85;97827.50;5038766;28;19988;-72
2023/07/31 06:53:32;;;;;;;;;;;;;;;21.93;95.85;97830.81;5023309;28;19925;-71
2023/07/31 06:55:58;;;;;;;;;;;;;;;21.86;94.92;97819.66;5046212;28;19936;-72
2023/07/31 06:58:25;;;;;;;;;;;;;;;22.02;95.46;97812.47;5044194;28;19924;-72
2023/07/31 07:00:51;;;;;;;;;;;;;;;22.04;95.26;97819.13;5041061;28;20007;-71
2023/07/31 07:03:20;;;;;;;;;;;;;;;22.03;95.10;97812.09;5042380;28;19952;-71
2023/07/31 07:05:46;;;;;;;;;;;;;;;22.01;95.31;97816.31;5048219;28;19925;-71
2023/07/31 07:08:14;;;;;;;;;;;;;;;22.01;95.83;97816.31;5042718;28;19956;-71
2023/07/31 07:10:40;;;;;;;;;;;;;;;22.03;95.28;97808.63;5040867;28;19925;-71
2023/07/31 07:13:07;;;;;;;;;;;;;;;22.06;95.45;97810.66;5041393;28;20476;-71
2023/07/31 07:15:33;;;;;;;;;;;;;;;22.17;95.18;97809.06;5047965;28;19960;-71
2023/07/31 07:18:00;;;;;;;;;;;;;;;22.12;96.01;97812.00;5021289;28;19932;-71
2023/07/31 07:20:26;;;;;;;;;;;;;;;22.15;96.16;97805.91;5044282;28;19925;-72
2023/07/31 07:22:52;;;;;;;;;;;;;;;22.08;95.13;97819.25;5041424;28;19925;-71
2023/07/31 07:25:20;;;;;;;;;;;;;;;22.16;95.35;97807.47;5023694;28;19925;-71
2023/07/31 07:27:47;;;;;;;;;;;;;;;22.30;95.86;97818.00;5042506;28;19925;-72
2023/07/31 07:30:14;;;;;;;;;;;;;;;22.17;96.29;97809.06;5044581;28;19925;-72
2023/07/31 07:32:40;;;;;;;;;;;;;;;22.21;95.51;97804.53;5028160;28;19964;-72
2023/07/31 07:35:07;;;;;;;;;;;;;;;22.32;95.68;97813.81;5041391;28;19925;-71
2023/07/31 07:37:33;;;;;;;;;;;;;;;22.19;95.80;97806.00;5041127;28;19932;-71
2023/07/31 07:40:00;;;;;;;;;;;;;;;22.24;95.24;97808.50;5042012;28;19980;-72
2023/07/31 07:42:27;;;;;;;;;;;;;;;22.30;94.92;97816.09;5042458;28;19926;-72
2023/07/31 07:44:54;;;;;;;;;;;;;;;22.16;95.98;97812.91;5045781;28;19960;-72
2023/07/31 07:47:20;;;;;;;;;;;;;;;22.08;96.08;97808.38;5048549;28;19925;-72
2023/07/31 07:49:46;;;;;;;;;;;;;;;22.06;97.09;97816.09;5040901;28;22396;-72
2023/07/31 07:52:13;;;;;;;;;;;;;;;22.14;97.15;97814.38;5042108;28;19932;-72
2023/07/31 07:54:39;;;;;;;;;;;;;;;22.06;96.55;97813.38;5049202;28;19992;-72
2023/07/31 07:57:05;;;;;;;;;;;;;;;22.02;96.16;97815.19;5041954;28;20441;-72
2023/07/31 07:59:33;;;;;;;;;;;;;;;22.09;96.35;97811.91;5041307;28;19932;-72
2023/07/31 08:02:00;;;;;;;;;;;;;;;22.05;95.87;97800.91;5023760;28;19932;-72
2023/07/31 08:04:26;;;;;;;;;;;;;;;22.13;95.80;97812.81;5029854;28;19997;-72
2023/07/31 08:06:52;;;;;;;;;;;;;;;22.20;94.79;97813.81;5049400;28;19924;-72
2023/07/31 08:09:19;;;;;;;;;;;;;;;22.23;94.23;97813.13;5046612;28;19936;-72
2023/07/31 08:11:45;;;;;;;;;;;;;;;22.26;94.20;97814.38;5044217;28;19979;-72
2023/07/31 08:14:11;;;;;;;;;;;;;;;22.23;92.95;97818.56;5044651;28;19925;-73
2023/07/31 08:16:39;;;;;;;;;;;;;;;22.23;92.94;97832.19;5053668;28;19964;-72
2023/07/31 08:19:05;;;;;;;;;;;;;;;22.30;92.57;97826.97;5047044;28;19936;-72
2023/07/31 08:21:32;;;;;;;;;;;;;;;22.17;94.67;97824.56;5048767;28;19932;-72
2023/07/31 08:23:58;;;;;;;;;;;;;;;22.08;95.61;97832.06;5044466;28;19957;-72
2023/07/31 08:26:25;;;;;;;;;;;;;;;22.06;96.10;97835.13;5026657;28;19989;-72
2023/07/31 08:28:51;;;;;;;;;;;;;;;22.07;96.49;97823.09;5045701;28;19996;-72
2023/07/31 08:31:18;;;;;;;;;;;;;;;22.17;96.25;97821.84;5046981;28;20019;-72
2023/07/31 08:33:46;;;;;;;;;;;;;;;22.35;95.51;97821.28;5048771;28;19925;-72
2023/07/31 08:36:12;;;;;;;;;;;;;;;22.16;95.49;97818.34;5023208;28;19934;-71
2023/07/31 08:38:38;;;;;;;;;;;;;;;22.08;97.15;97815.75;5040621;28;19944;-71
2023/07/31 08:41:05;;;;;;;;;;;;;;;22.20;96.40;97815.72;5042015;28;19953;-71
2023/07/31 08:43:31;;;;;;;;;;;;;;;22.08;97.33;97818.47;5041852;28;19925;-71
2023/07/31 08:45:58;;;;;;;;;;;;;;;21.97;97.49;97815.41;5045570;28;20037;-71
2023/07/31 08:48:25;;;;;;;;;;;;;;;22.08;97.69;97816.53;5044282;28;19933;-74
2023/07/31 08:50:54;;;;;;;;;;;;;;;22.05;97.75;97809.84;5043791;28;19953;-72
2023/07/31 08:53:20;;;;;;;;;;;;;;;22.23;96.63;97815.84;5048136;28;19926;-72
2023/07/31 08:55:47;;;;;;;;;;;;;;;22.37;95.54;97818.25;5048779;28;19980;-72
2023/07/31 08:58:14;;;;;;;;;;;;;;;22.30;96.00;97810.66;5027799;28;19925;-73
2023/07/31 09:00:41;;;;;;;;;;;;;;;22.37;95.69;97812.78;5043880;28;19925;-73
2023/07/31 09:03:10;;;;;;;;;;;;;;;22.38;95.90;97809.72;5043712;28;19948;-73
2023/07/31 09:05:37;;;;;;;;;;;;;;;22.32;96.00;97811.09;5045514;28;19930;-73
2023/07/31 09:08:05;;;;;;;;;;;;;;;22.36;95.83;97801.13;5048289;28;19925;-73
2023/07/31 09:10:32;;;;;;;;;;;;;;;22.43;95.15;97800.53;5047412;28;19925;-73
2023/07/31 09:12:59;;;;;;;;;;;;;;;22.56;93.22;97792.00;5025394;28;20012;-73
2023/07/31 09:15:25;;;;;;;;;;;;;;;22.60;92.72;97792.09;5043593;28;20330;-74
2023/07/31 09:17:59;;;;;;;;;;;;;;;22.75;92.38;97790.63;5027222;28;19926;-73
2023/07/31 09:20:25;;;;;;;;;;;;;;;22.77;92.23;97783.72;5027369;28;19944;-73
2023/07/31 09:22:52;;;;;;;;;;;;;;;22.83;91.33;97771.44;5030553;28;19925;-73
2023/07/31 09:25:21;;;;;;;;;;;;;;;22.91;91.01;97769.69;5044763;28;20020;-73
2023/07/31 09:27:48;;;;;;;;;;;;;;;23.09;89.35;97768.25;5043318;28;19935;-73
2023/07/31 09:30:15;;;;;;;;;;;;;;;23.00;90.92;97762.16;5027034;28;19929;-73
2023/07/31 09:32:41;;;;;;;;;;;;;;;23.09;89.85;97768.25;5017862;28;20398;-72
2023/07/31 09:35:14;;;;;;;;;;;;;;;23.02;89.82;97765.34;5051518;28;19925;-73
2023/07/31 09:37:40;;;;;;;;;;;;;;;23.00;88.52;97771.13;5043269;28;19966;-73
2023/07/31 09:40:07;;;;;;;;;;;;;;;22.90;88.67;97768.91;5043160;28;19975;-72
2023/07/31 09:42:35;;;;;;;;;;;;;;;22.99;89.24;97764.09;5045207;28;19972;-72
2023/07/31 09:45:08;;;;;;;;;;;;;;;22.92;89.51;97769.34;5048180;28;19957;-73
2023/07/31 09:47:34;;;;;;;;;;;;;;;22.91;89.12;97764.25;5029997;28;19925;-73
2023/07/31 09:50:01;;;;;;;;;;;;;;;22.98;89.55;97756.28;5042441;28;19992;-72
2023/07/31 09:52:28;;;;;;;;;;;;;;;22.98;90.18;97748.09;5024789;28;19995;-72
2023/07/31 09:54:54;;;;;;;;;;;;;;;23.06;90.16;97747.16;5043629;28;19925;-72
2023/07/31 09:57:22;;;;;;;;;;;;;;;23.15;88.98;97750.50;5027263;28;19971;-72
2023/07/31 09:59:52;;;;;;;;;;;;;;;23.17;88.10;97747.44;5047085;28;19925;-72
2023/07/31 10:02:22;;;;;;;;;;;;;;;23.27;87.79;97741.50;5026766;28;19961;-72
2023/07/31 10:04:50;;;;;;;;;;;;;;;23.33;86.54;97735.44;5042237;28;19925;-72
2023/07/31 10:07:18;;;;;;;;;;;;;;;23.44;87.04;97730.28;5042761;28;19937;-73
2023/07/31 10:09:45;;;;;;;;;;;;;;;23.46;87.08;97733.44;5043218;28;20417;-72
2023/07/31 10:12:13;;;;;;;;;;;;;;;23.62;86.04;97715.16;5028254;28;19953;-72
2023/07/31 10:14:40;;;;;;;;;;;;;;;23.52;83.13;97716.47;5046699;28;19980;-72
2023/07/31 10:17:08;;;;;;;;;;;;;;;23.58;85.95;97714.31;5047999;28;19929;-72
2023/07/31 10:19:35;;;;;;;;;;;;;;;23.70;84.55;97706.03;5042129;28;19929;-72
2023/07/31 10:22:03;;;;;;;;;;;;;;;23.53;85.90;97707.16;5025455;28;19935;-72
2023/07/31 10:24:30;;;;;;;;;;;;;;;23.67;83.53;97700.47;5049023;28;19925;-72
2023/07/31 10:26:58;;;;;;;;;;;;;;;23.75;81.79;97692.13;5042267;28;19925;-73
2023/07/31 10:29:25;;;;;;;;;;;;;;;23.87;80.37;97693.94;5041936;28;19932;-72
2023/07/31 10:31:52;;;;;;;;;;;;;;;23.91;81.10;97694.81;5024106;28;19925;-72
2023/07/31 10:34:20;;;;;;;;;;;;;;;23.99;79.60;97685.63;5045760;28;19925;-72
2023/07/31 10:36:46;;;;;;;;;;;;;;;23.99;76.86;97682.91;5046285;28;19929;-72
2023/07/31 10:39:28;;;;;;;;;;;;;;;24.03;77.28;97681.06;5042696;28;19932;-72
2023/07/31 10:41:54;;;;;;;;;;;;;;;24.17;76.16;97679.47;5041118;28;19925;-72
2023/07/31 10:44:20;;;;;;;;;;;;;;;24.21;74.50;97682.28;5041615;28;19930;-72
2023/07/31 10:46:47;;;;;;;;;;;;;;;24.23;74.47;97682.72;5049700;28;19968;-72
2023/07/31 10:49:21;;;;;;;;;;;;;;;24.30;72.86;97666.47;5025786;28;19956;-71
2023/07/31 10:51:49;;;;;;;;;;;;;;;24.16;74.16;97674.38;5045925;28;19967;-73
2023/07/31 10:54:17;;;;;;;;;;;;;;;24.12;73.56;97663.38;5025523;28;19925;-72
2023/07/31 10:56:45;;;;;;;;;;;;;;;24.07;74.46;97660.13;5041040;28;19931;-72
2023/07/31 10:59:13;;;;;;;;;;;;;;;24.13;73.71;97653.25;5042409;28;19926;-72
2023/07/31 11:01:52;;;;;;;;;;;;;;;24.18;72.48;97658.44;5041619;28;19925;-71
2023/07/31 11:04:23;;;;;;;;;;;;;;;24.17;71.92;97663.09;5044055;28;19949;-71
2023/07/31 11:06:57;;;;;;;;;;;;;;;24.24;73.40;97658.94;5045685;28;19932;-71
2023/07/31 11:09:25;;;;;;;;;;;;;;;24.17;73.38;97654.91;5043618;28;19992;-71
2023/07/31 11:11:52;;;;;;;;;;;;;;;24.22;74.17;97656.56;5023255;28;19929;-71
2023/07/31 11:14:18;;;;;;;;;;;;;;;24.29;70.49;97650.47;5042555;28;19925;-71
2023/07/31 11:16:45;;;;;;;;;;;;;;;24.18;73.22;97652.97;5042544;28;19947;-71
2023/07/31 11:19:11;;;;;;;;;;;;;;;24.33;72.98;97641.19;5042637;28;19925;-72
2023/07/31 11:21:37;;;;;;;;;;;;;;;24.54;70.63;97635.41;5023361;28;19940;-71
2023/07/31 11:24:05;;;;;;;;;;;;;;;24.41;71.83;97642.94;5041086;28;19948;-71
2023/07/31 11:26:31;;;;;;;;;;;;;;;24.41;71.82;97623.84;5025705;28;19925;-71
2023/07/31 11:28:58;;;;;;;;;;;;;;;24.38;73.69;97632.75;5028082;28;19960;-71
2023/07/31 11:31:24;;;;;;;;;;;;;;;24.35;74.47;97624.47;5025626;28;20025;-71
2023/07/31 11:33:51;;;;;;;;;;;;;;;24.54;71.07;97616.28;5040943;28;19925;-71
2023/07/31 11:36:17;;;;;;;;;;;;;;;24.48;68.57;97615.75;5042100;28;19933;-71
2023/07/31 11:38:44;;;;;;;;;;;;;;;24.31;71.08;97620.88;5045937;28;19925;-71
2023/07/31 11:41:14;;;;;;;;;;;;;;;24.43;70.64;97629.72;5048649;28;19956;-71
2023/07/31 11:43:40;;;;;;;;;;;;;;;24.52;68.60;97622.09;5049660;28;19949;-71
2023/07/31 11:46:07;;;;;;;;;;;;;;;24.32;70.10;97617.81;5027451;28;19996;-71
2023/07/31 11:48:35;;;;;;;;;;;;;;;24.32;70.00;97611.56;5044271;28;19952;-72
2023/07/31 11:51:03;;;;;;;;;;;;;;;24.45;68.84;97600.09;5028336;28;19931;-72
2023/07/31 11:53:32;;;;;;;;;;;;;;;24.51;69.54;97604.13;5046114;28;19949;-72
2023/07/31 11:55:59;;;;;;;;;;;;;;;24.61;68.81;97603.53;5049558;28;19952;-72
2023/07/31 11:58:27;;;;;;;;;;;;;;;24.50;68.58;97596.31;5047576;28;19929;-72
2023/07/31 12:00:54;;;;;;;;;;;;;;;24.61;67.31;97589.88;5044392;28;19929;-73
2023/07/31 12:03:21;;;;;;;;;;;;;;;24.46;69.41;97590.78;5028256;28;19932;-72
2023/07/31 12:05:48;;;;;;;;;;;;;;;24.53;68.74;97585.47;5044259;28;20077;-72
2023/07/31 12:08:16;;;;;;;;;;;;;;;24.48;69.39;97579.50;5034960;28;19925;-72
2023/07/31 12:10:42;;;;;;;;;;;;;;;24.63;67.77;97579.38;5026867;28;19925;-72
2023/07/31 12:13:13;;;;;;;;;;;;;;;24.78;67.73;97579.66;5044280;28;19929;-71
2023/07/31 12:15:41;;;;;;;;;;;;;;;24.75;67.37;97569.47;5033535;28;19932;-71
2023/07/31 12:18:09;;;;;;;;;;;;;;;24.56;69.19;97559.38;5048294;28;19952;-71
2023/07/31 12:20:35;;;;;;;;;;;;;;;24.53;70.08;97560.09;5048432;28;19968;-71
2023/07/31 12:23:02;;;;;;;;;;;;;;;24.58;70.68;97555.13;5043867;28;20204;-71
2023/07/31 12:25:32;;;;;;;;;;;;;;;24.59;70.98;97553.97;5044339;28;19926;-72
2023/07/31 12:28:04;;;;;;;;;;;;;;;24.65;70.29;97559.94;5045561;28;19926;-72
2023/07/31 12:30:33;;;;;;;;;;;;;;;24.68;70.09;97548.28;5046683;28;19926;-72
2023/07/31 12:33:05;;;;;;;;;;;;;;;24.61;69.72;97546.22;5031542;28;19925;-71
2023/07/31 12:35:35;;;;;;;;;;;;;;;24.68;69.79;97543.59;5030215;28;19956;-71
2023/07/31 12:38:02;;;;;;;;;;;;;;;24.71;69.92;97533.91;5044353;28;19944;-71
2023/07/31 12:40:28;;;;;;;;;;;;;;;24.75;69.04;97539.41;5026074;28;19925;-71
2023/07/31 12:42:55;;;;;;;;;;;;;;;24.73;69.91;97543.28;5045092;28;19930;-72